Time;durP1;ratioP1;P1;durP2;ratioP2;P2;SDS_P1;SDS_P2;PMS_P1;PMS_P2;Temp;Humidity;BMP_temperature;BMP_pressure;BME280_temperature;BME280_humidity;BME280_pressure;Samples;Min_cycle;Max_cycle;Signal;HPM_P1;HPM_P2
2023/05/21 00:00:22;;;;;;;10.63;8.60;;;14.70;99.90;;;;;;4966279;28;20046;-71
2023/05/21 00:02:48;;;;;;;11.52;9.13;;;14.70;99.90;;;;;;4983843;28;20039;-73
2023/05/21 00:05:15;;;;;;;11.57;9.30;;;14.70;99.90;;;;;;4951563;28;20038;-73
2023/05/21 00:07:43;;;;;;;12.10;8.60;;;14.70;99.90;;;;;;4980351;28;20202;-73
2023/05/21 00:10:09;;;;;;;13.32;9.60;;;14.70;99.90;;;;;;4996149;28;20046;-73
2023/05/21 00:12:37;;;;;;;13.48;9.27;;;14.60;99.90;;;;;;4978058;28;20644;-73
2023/05/21 00:15:03;;;;;;;11.23;8.68;;;14.60;99.90;;;;;;4968204;28;20060;-73
2023/05/21 00:17:28;;;;;;;11.65;9.15;;;14.60;99.90;;;;;;4949221;28;20046;-73
2023/05/21 00:19:55;;;;;;;12.38;9.68;;;14.50;99.90;;;;;;4980635;28;20510;-73
2023/05/21 00:22:22;;;;;;;13.93;9.40;;;14.50;99.90;;;;;;4952087;28;20077;-73
2023/05/21 00:24:47;;;;;;;12.57;9.57;;;14.50;99.90;;;;;;4950881;28;20136;-73
2023/05/21 00:27:13;;;;;;;12.38;9.07;;;14.50;99.90;;;;;;4968813;28;20534;-72
2023/05/21 00:29:39;;;;;;;11.18;8.77;;;14.50;99.90;;;;;;4985644;28;20054;-73
2023/05/21 00:32:05;;;;;;;12.70;9.88;;;14.50;99.90;;;;;;4950031;28;20050;-73
2023/05/21 00:34:31;;;;;;;12.70;9.07;;;14.50;99.90;;;;;;4950857;28;20050;-73
2023/05/21 00:36:56;;;;;;;11.60;9.00;;;14.50;99.90;;;;;;4981319;28;20390;-72
2023/05/21 00:39:23;;;;;;;14.07;9.75;;;14.50;99.90;;;;;;4971384;28;20474;-73
2023/05/21 00:41:48;;;;;;;11.25;8.40;;;14.50;99.90;;;;;;4982682;28;20130;-73
2023/05/21 00:44:17;;;;;;;10.25;8.82;;;14.40;99.90;;;;;;4932126;28;20166;-72
2023/05/21 00:46:43;;;;;;;13.63;9.57;;;14.40;99.90;;;;;;4947674;28;20162;-71
2023/05/21 00:49:09;;;;;;;10.30;8.32;;;14.40;99.90;;;;;;4967678;28;20046;-74
2023/05/21 00:51:35;;;;;;;11.60;9.35;;;14.40;99.90;;;;;;4935039;28;20053;-72
2023/05/21 00:54:02;;;;;;;15.98;10.15;;;14.30;99.90;;;;;;4983042;28;20108;-72
2023/05/21 00:56:28;;;;;;;14.88;9.43;;;14.30;99.90;;;;;;4944245;28;20074;-72
2023/05/21 00:58:54;;;;;;;10.73;8.32;;;14.30;99.90;;;;;;4992082;28;20043;-72
2023/05/21 01:01:24;;;;;;;10.38;8.88;;;14.30;99.90;;;;;;4985714;28;20047;-73
2023/05/21 01:03:56;;;;;;;13.68;9.38;;;14.20;99.90;;;;;;4966223;28;20042;-72
2023/05/21 01:06:22;;;;;;;10.02;8.32;;;14.20;99.90;;;;;;4965000;28;20060;-72
2023/05/21 01:08:49;;;;;;;13.27;8.82;;;14.20;99.90;;;;;;4963325;28;20050;-73
2023/05/21 01:11:17;;;;;;;12.77;9.10;;;14.20;99.90;;;;;;4932653;28;20382;-72
2023/05/21 01:13:43;;;;;;;10.70;9.02;;;14.10;99.90;;;;;;4951985;28;20078;-73
2023/05/21 01:16:09;;;;;;;11.80;8.25;;;14.10;99.90;;;;;;4940838;28;20466;-73
2023/05/21 01:18:36;;;;;;;11.02;8.93;;;14.10;99.90;;;;;;4962707;28;20053;-73
2023/05/21 01:21:02;;;;;;;10.73;8.18;;;14.10;99.90;;;;;;4965274;28;20382;-72
2023/05/21 01:23:29;;;;;;;9.35;8.07;;;14.10;99.90;;;;;;4983382;28;20081;-73
2023/05/21 01:25:55;;;;;;;10.35;8.02;;;14.10;99.90;;;;;;4976435;28;20042;-73
2023/05/21 01:28:20;;;;;;;10.38;8.40;;;14.10;99.90;;;;;;4983989;28;20058;-73
2023/05/21 01:30:46;;;;;;;11.20;8.32;;;14.10;99.90;;;;;;4958940;28;20046;-73
2023/05/21 01:33:19;;;;;;;11.75;8.48;;;14.00;99.90;;;;;;4963387;28;20046;-73
2023/05/21 01:35:49;;;;;;;10.75;8.48;;;14.10;99.90;;;;;;4968052;28;20125;-73
2023/05/21 01:38:18;;;;;;;11.07;8.02;;;14.00;99.90;;;;;;4969358;28;20490;-74
2023/05/21 01:40:45;;;;;;;;;;;14.10;99.90;;;;;;4980786;28;20073;-73
2023/05/21 01:43:11;;;;;;;10.63;8.57;;;14.00;99.90;;;;;;4987395;28;19981;-74
2023/05/21 01:45:38;;;;;;;12.30;8.43;;;14.00;99.90;;;;;;4965690;28;20466;-72
2023/05/21 01:48:06;;;;;;;11.60;8.07;;;13.90;99.90;;;;;;4995847;28;20367;-73
2023/05/21 01:50:32;;;;;;;14.27;8.75;;;13.90;99.90;;;;;;4977501;28;20109;-73
2023/05/21 01:52:59;;;;;;;11.68;8.73;;;14.00;99.90;;;;;;4957459;28;20153;-73
2023/05/21 01:55:26;;;;;;;10.80;8.77;;;13.90;99.90;;;;;;4968873;28;20113;-72
2023/05/21 01:57:53;;;;;;;10.45;8.48;;;13.90;99.90;;;;;;4949527;28;20042;-72
2023/05/21 02:00:20;;;;;;;10.25;8.77;;;13.90;99.90;;;;;;4985084;28;20374;-73
2023/05/21 02:02:46;;;;;;;11.85;8.60;;;13.80;99.90;;;;;;4964711;28;20042;-73
2023/05/21 02:05:11;;;;;;;12.90;8.65;;;13.80;99.90;;;;;;4963058;28;20434;-72
2023/05/21 02:07:39;;;;;;;11.20;8.73;;;13.80;99.90;;;;;;4988985;28;20056;-72
2023/05/21 02:10:05;;;;;;;12.35;9.05;;;13.80;99.90;;;;;;4963426;28;20042;-73
2023/05/21 02:12:31;;;;;;;9.68;8.13;;;13.80;99.90;;;;;;4973576;28;20053;-73
2023/05/21 02:14:57;;;;;;;10.90;8.50;;;13.80;99.90;;;;;;4955502;28;20348;-72
2023/05/21 02:17:25;;;;;;;9.77;8.25;;;13.80;99.90;;;;;;4988597;28;21405;-73
2023/05/21 02:19:51;;;;;;;;;;;13.70;99.90;;;;;;4993754;28;20058;-73
2023/05/21 02:22:16;;;;;;;13.73;9.10;;;13.70;99.90;;;;;;4994919;28;19921;-72
2023/05/21 02:24:42;;;;;;;12.02;8.95;;;13.60;99.90;;;;;;4957813;28;20058;-73
2023/05/21 02:27:09;;;;;;;10.32;8.43;;;13.60;99.90;;;;;;4984336;28;20050;-73
2023/05/21 02:29:35;;;;;;;13.38;9.25;;;13.50;99.90;;;;;;4967999;28;20073;-73
2023/05/21 02:32:01;;;;;;;15.10;10.88;;;13.60;99.90;;;;;;4982896;28;20395;-73
2023/05/21 02:34:29;;;;;;;14.98;9.80;;;13.50;99.90;;;;;;4967960;28;20142;-73
2023/05/21 02:36:57;;;;;;;11.98;9.23;;;13.50;99.90;;;;;;4983264;28;20051;-73
2023/05/21 02:39:23;;;;;;;13.05;8.88;;;13.50;99.90;;;;;;4939221;28;20378;-72
2023/05/21 02:41:49;;;;;;;11.65;8.73;;;13.60;99.90;;;;;;4981501;28;20066;-73
2023/05/21 02:44:15;;;;;;;10.82;7.97;;;13.60;99.90;;;;;;4955263;28;20049;-73
2023/05/21 02:46:41;;;;;;;11.13;8.45;;;13.50;99.90;;;;;;4986891;28;20064;-73
2023/05/21 02:49:06;;;;;;;12.48;9.15;;;13.50;99.90;;;;;;4988007;28;20395;-73
2023/05/21 02:51:32;;;;;;;10.30;7.90;;;13.50;99.90;;;;;;4964251;28;20046;-73
2023/05/21 02:53:59;;;;;;;9.57;7.93;;;13.50;99.90;;;;;;4967532;28;20088;-73
2023/05/21 02:56:27;;;;;;;11.68;8.20;;;13.50;99.90;;;;;;4968740;28;20050;-73
2023/05/21 02:58:53;;;;;;;9.80;8.23;;;13.50;99.90;;;;;;4978814;28;20042;-72
2023/05/21 03:01:19;;;;;;;12.70;8.77;;;13.50;99.90;;;;;;4996142;28;20321;-73
2023/05/21 03:03:45;;;;;;;10.50;8.15;;;13.40;99.90;;;;;;4963462;28;20039;-72
2023/05/21 03:06:11;;;;;;;12.45;7.68;;;13.40;99.90;;;;;;4991567;28;20829;-73
2023/05/21 03:08:38;;;;;;;11.02;8.38;;;13.40;99.90;;;;;;4991495;28;20049;-73
2023/05/21 03:11:03;;;;;;;11.98;8.30;;;13.40;99.90;;;;;;4954426;28;20614;-73
2023/05/21 03:13:29;;;;;;;12.63;9.02;;;13.40;99.90;;;;;;4986042;28;20061;-73
2023/05/21 03:15:55;;;;;;;9.02;8.00;;;13.30;99.90;;;;;;4996003;28;20463;-73
2023/05/21 03:18:21;;;;;;;10.07;8.50;;;13.30;99.90;;;;;;4968671;28;20042;-73
2023/05/21 03:20:47;;;;;;;10.73;8.32;;;13.30;99.90;;;;;;4962534;28;20038;-73
2023/05/21 03:23:13;;;;;;;11.95;9.07;;;13.30;99.90;;;;;;4968332;28;20116;-73
2023/05/21 03:25:39;;;;;;;11.95;8.18;;;13.30;99.90;;;;;;4974150;28;20046;-73
2023/05/21 03:28:06;;;;;;;11.63;8.55;;;13.30;99.90;;;;;;4984970;28;20046;-73
2023/05/21 03:30:32;;;;;;;13.93;8.60;;;13.30;99.90;;;;;;4982626;28;20129;-73
2023/05/21 03:32:58;;;;;;;10.90;8.40;;;13.20;99.90;;;;;;4988748;28;20121;-73
2023/05/21 03:35:24;;;;;;;13.68;8.48;;;13.30;99.90;;;;;;4974882;28;20493;-73
2023/05/21 03:37:50;;;;;;;11.63;8.77;;;13.30;99.90;;;;;;4987762;28;20064;-73
2023/05/21 03:40:16;;;;;;;12.30;7.80;;;13.20;99.90;;;;;;4981377;28;20124;-73
2023/05/21 03:42:43;;;;;;;14.25;8.80;;;13.20;99.90;;;;;;4964427;28;20050;-73
2023/05/21 03:45:09;;;;;;;12.25;8.68;;;13.20;99.90;;;;;;4983784;28;20038;-73
2023/05/21 03:47:35;;;;;;;12.18;8.75;;;13.20;99.90;;;;;;4994115;28;20053;-74
2023/05/21 03:50:02;;;;;;;13.27;8.52;;;13.20;99.90;;;;;;4950807;28;20391;-73
2023/05/21 03:52:27;;;;;;;11.57;8.65;;;13.20;99.90;;;;;;4972070;28;20042;-73
2023/05/21 03:54:53;;;;;;;10.23;8.48;;;13.20;99.90;;;;;;4952931;28;20042;-74
2023/05/21 03:57:19;;;;;;;10.75;8.68;;;13.20;99.90;;;;;;4983678;28;20136;-73
2023/05/21 03:59:45;;;;;;;10.50;7.85;;;13.20;99.90;;;;;;4974936;28;20038;-73
2023/05/21 04:02:10;;;;;;;12.80;8.68;;;13.20;99.90;;;;;;4946845;28;20074;-73
2023/05/21 04:04:36;;;;;;;9.82;8.15;;;13.20;99.90;;;;;;4967033;28;20050;-73
2023/05/21 04:07:03;;;;;;;11.73;8.57;;;13.20;99.90;;;;;;4997061;28;20050;-73
2023/05/21 04:09:29;;;;;;;11.30;8.82;;;13.20;99.90;;;;;;4944978;28;20050;-73
2023/05/21 04:11:55;;;;;;;11.10;9.27;;;13.20;99.90;;;;;;4985637;28;20053;-73
2023/05/21 04:14:24;;;;;;;14.55;10.18;;;13.10;99.90;;;;;;4968242;28;20131;-73
2023/05/21 04:16:49;;;;;;;14.32;10.80;;;13.20;99.90;;;;;;4983384;28;20054;-74
2023/05/21 04:19:15;;;;;;;12.18;9.25;;;13.20;99.90;;;;;;4977366;28;20112;-73
2023/05/21 04:21:43;;;;;;;12.45;9.63;;;13.30;99.90;;;;;;4988989;28;20795;-73
2023/05/21 04:24:09;;;;;;;;;;;13.30;99.90;;;;;;4962561;28;20110;-73
2023/05/21 04:26:35;;;;;;;10.73;8.32;;;13.30;99.90;;;;;;4985507;28;20020;-73
2023/05/21 04:29:02;;;;;;;15.30;9.90;;;13.30;99.90;;;;;;4985905;28;20042;-73
2023/05/21 04:31:30;;;;;;;12.80;9.50;;;13.30;99.90;;;;;;4984235;28;20402;-73
2023/05/21 04:33:55;;;;;;;10.73;9.40;;;13.30;99.90;;;;;;4983765;28;20082;-73
2023/05/21 04:36:21;;;;;;;12.60;8.75;;;13.30;99.90;;;;;;4963719;28;20297;-73
2023/05/21 04:38:48;;;;;;;11.98;8.85;;;13.30;99.90;;;;;;4964152;28;20463;-73
2023/05/21 04:41:14;;;;;;;11.82;10.10;;;13.30;99.90;;;;;;4958614;28;20058;-74
2023/05/21 04:43:42;;;;;;;12.90;9.75;;;13.40;99.90;;;;;;4977473;28;20057;-73
2023/05/21 04:46:08;;;;;;;;;;;13.40;99.90;;;;;;4995447;28;20045;-73
2023/05/21 04:48:34;;;;;;;11.88;9.20;;;13.40;99.90;;;;;;4982430;28;19914;-74
2023/05/21 04:51:00;;;;;;;13.43;9.60;;;13.50;99.90;;;;;;4971269;28;20054;-74
2023/05/21 04:53:25;;;;;;;11.70;8.75;;;13.40;99.90;;;;;;4993448;28;20481;-74
2023/05/21 04:55:51;;;;;;;12.32;9.73;;;13.50;99.90;;;;;;4967772;28;20486;-73
2023/05/21 04:58:17;;;;;;;13.30;10.23;;;13.50;99.90;;;;;;4981088;28;20053;-73
2023/05/21 05:00:45;;;;;;;12.15;10.05;;;13.60;99.90;;;;;;4959879;28;20434;-73
2023/05/21 05:03:11;;;;;;;11.57;9.23;;;13.50;99.90;;;;;;4976769;28;20049;-74
2023/05/21 05:05:38;;;;;;;13.77;10.77;;;13.60;99.90;;;;;;4929255;28;20528;-73
2023/05/21 05:08:04;;;;;;;15.05;10.07;;;13.60;99.90;;;;;;4964298;28;20046;-73
2023/05/21 05:10:29;;;;;;;13.77;8.95;;;13.60;99.90;;;;;;4976141;28;20378;-74
2023/05/21 05:12:56;;;;;;;15.45;11.00;;;13.70;99.90;;;;;;4968646;28;20145;-73
2023/05/21 05:15:22;;;;;;;15.93;10.45;;;13.70;99.90;;;;;;4968225;28;20065;-74
2023/05/21 05:17:49;;;;;;;12.88;9.93;;;13.70;99.90;;;;;;4983423;28;20050;-74
2023/05/21 05:20:15;;;;;;;13.35;10.98;;;13.70;99.90;;;;;;4983937;28;20054;-73
2023/05/21 05:22:40;;;;;;;13.77;10.27;;;13.80;99.90;;;;;;4994474;28;20057;-74
2023/05/21 05:25:06;;;;;;;13.93;10.30;;;13.80;99.90;;;;;;4962021;28;20042;-73
2023/05/21 05:27:32;;;;;;;18.08;10.45;;;13.90;99.90;;;;;;4981324;28;20050;-73
2023/05/21 05:29:58;;;;;;;15.27;10.52;;;13.90;99.90;;;;;;4969969;28;20045;-73
2023/05/21 05:32:24;;;;;;;11.07;9.60;;;13.90;99.90;;;;;;4981899;28;20057;-73
2023/05/21 05:34:50;;;;;;;13.98;10.23;;;13.90;99.90;;;;;;4974911;28;20209;-73
2023/05/21 05:37:16;;;;;;;13.65;10.20;;;14.00;99.90;;;;;;4976307;28;20054;-74
2023/05/21 05:39:41;;;;;;;19.30;11.77;;;14.00;99.90;;;;;;4988797;28;20050;-73
2023/05/21 05:42:07;;;;;;;14.45;11.20;;;14.10;99.90;;;;;;4963536;28;20058;-74
2023/05/21 05:44:33;;;;;;;16.33;11.35;;;14.10;99.90;;;;;;4978500;28;20042;-73
2023/05/21 05:46:59;;;;;;;11.88;10.27;;;14.10;99.90;;;;;;4989656;28;20057;-73
2023/05/21 05:49:25;;;;;;;16.13;11.75;;;14.20;99.90;;;;;;4996477;28;20046;-73
2023/05/21 05:51:50;;;;;;;15.52;11.18;;;14.20;99.90;;;;;;4966350;28;20084;-73
2023/05/21 05:54:16;;;;;;;18.13;12.65;;;14.20;99.90;;;;;;4991155;28;20490;-73
2023/05/21 05:56:42;;;;;;;17.08;12.73;;;14.20;99.90;;;;;;4995803;28;20134;-73
2023/05/21 05:59:08;;;;;;;15.77;11.82;;;14.20;99.90;;;;;;4986809;28;20042;-74
2023/05/21 06:01:33;;;;;;;17.55;13.35;;;14.30;99.90;;;;;;4996557;28;20474;-74
2023/05/21 06:03:59;;;;;;;14.35;11.88;;;14.30;99.90;;;;;;4996434;28;20057;-74
2023/05/21 06:06:25;;;;;;;17.52;12.40;;;14.40;99.90;;;;;;4979723;28;20070;-73
2023/05/21 06:08:53;;;;;;;16.85;13.00;;;14.40;99.90;;;;;;4996464;28;20478;-73
2023/05/21 06:11:19;;;;;;;15.50;12.18;;;14.40;99.90;;;;;;4997978;28;20561;-73
2023/05/21 06:13:45;;;;;;;16.30;13.68;;;14.40;99.90;;;;;;4978990;28;20081;-73
2023/05/21 06:16:10;;;;;;;16.88;13.27;;;14.50;99.90;;;;;;5001959;28;20499;-74
2023/05/21 06:18:36;;;;;;;18.50;13.00;;;14.50;99.90;;;;;;4979705;28;20137;-74
2023/05/21 06:21:02;;;;;;;17.98;13.38;;;14.50;99.90;;;;;;4953269;28;20371;-74
2023/05/21 06:23:30;;;;;;;17.52;13.23;;;14.60;99.90;;;;;;4974700;28;20096;-73
2023/05/21 06:25:56;;;;;;;16.98;12.85;;;14.60;99.90;;;;;;4993175;28;20050;-74
2023/05/21 06:28:23;;;;;;;19.15;13.05;;;14.70;99.90;;;;;;4957163;28;20056;-74
2023/05/21 06:30:49;;;;;;;19.00;13.80;;;14.70;99.90;;;;;;4972932;28;20045;-74
2023/05/21 06:33:14;;;;;;;17.02;13.35;;;14.70;99.90;;;;;;4968172;28;20061;-74
2023/05/21 06:35:40;;;;;;;15.55;12.23;;;14.80;99.90;;;;;;4990126;28;20050;-74
2023/05/21 06:38:06;;;;;;;17.13;13.85;;;14.80;99.90;;;;;;4985578;28;20065;-74
2023/05/21 06:40:32;;;;;;;18.67;13.85;;;14.90;99.90;;;;;;4987022;28;20047;-73
2023/05/21 06:43:03;;;;;;;16.63;12.80;;;14.90;99.90;;;;;;4964536;28;20542;-74
2023/05/21 06:45:29;;;;;;;19.02;13.15;;;15.00;99.90;;;;;;4976376;28;20039;-73
2023/05/21 06:47:54;;;;;;;19.75;14.00;;;15.00;99.90;;;;;;4966709;28;20410;-74
2023/05/21 06:50:21;;;;;;;23.33;14.55;;;15.10;99.90;;;;;;4979995;28;20057;-74
2023/05/21 06:52:46;;;;;;;22.30;14.60;;;15.10;99.90;;;;;;4996412;28;20043;-73
2023/05/21 06:55:12;;;;;;;22.58;14.82;;;15.10;99.90;;;;;;5007765;28;20076;-73
2023/05/21 06:57:38;;;;;;;17.65;14.18;;;15.20;99.90;;;;;;4999021;28;20093;-74
2023/05/21 07:00:04;;;;;;;20.98;14.75;;;15.30;99.90;;;;;;4969960;28;20053;-71
2023/05/21 07:02:30;;;;;;;21.15;14.98;;;15.40;99.90;;;;;;4982173;28;20519;-73
2023/05/21 07:04:56;;;;;;;17.60;14.00;;;15.40;99.90;;;;;;4987237;28;20054;-74
2023/05/21 07:07:22;;;;;;;19.38;14.85;;;15.50;99.90;;;;;;4962713;28;20099;-74
2023/05/21 07:09:47;;;;;;;21.42;15.57;;;15.60;99.90;;;;;;4980515;28;20046;-74
2023/05/21 07:12:13;;;;;;;22.73;17.15;;;15.60;99.90;;;;;;4978826;28;20054;-74
2023/05/21 07:14:39;;;;;;;21.20;15.57;;;15.70;99.90;;;;;;4978817;28;20054;-74
2023/05/21 07:17:05;;;;;;;19.50;15.70;;;15.80;99.90;;;;;;4962755;28;20049;-74
2023/05/21 07:19:31;;;;;;;22.40;16.48;;;15.80;99.90;;;;;;4978634;28;20133;-74
2023/05/21 07:21:56;;;;;;;25.25;17.98;;;15.90;99.90;;;;;;4969202;28;20153;-74
2023/05/21 07:24:26;;;;;;;20.80;16.27;;;16.00;99.90;;;;;;4995320;28;20057;-75
2023/05/21 07:26:52;;;;;;;24.80;17.45;;;16.00;99.90;;;;;;4975419;28;20130;-74
2023/05/21 07:29:17;;;;;;;21.00;17.45;;;16.10;99.90;;;;;;4964909;28;20153;-75
2023/05/21 07:31:43;;;;;;;19.40;16.52;;;16.10;99.90;;;;;;4968940;28;20498;-74
2023/05/21 07:34:09;;;;;;;26.48;18.38;;;16.20;99.90;;;;;;4979147;28;20081;-74
2023/05/21 07:36:36;;;;;;;21.55;17.05;;;16.20;99.90;;;;;;4980866;28;20061;-74
2023/05/21 07:39:03;;;;;;;21.83;16.65;;;16.30;99.90;;;;;;4990131;28;20062;-74
2023/05/21 07:41:29;;;;;;;22.17;18.20;;;16.40;99.90;;;;;;4982893;28;20054;-74
2023/05/21 07:43:55;;;;;;;21.27;16.83;;;16.40;99.90;;;;;;4978110;28;20046;-74
2023/05/21 07:46:21;;;;;;;24.17;17.48;;;16.40;99.90;;;;;;4974718;28;20046;-74
2023/05/21 07:48:47;;;;;;;22.67;18.00;;;16.50;99.90;;;;;;4971719;28;20463;-73
2023/05/21 07:51:13;;;;;;;22.33;18.63;;;16.50;99.90;;;;;;4995499;28;20113;-73
2023/05/21 07:53:38;;;;;;;22.75;18.17;;;16.60;99.90;;;;;;4977431;28;20054;-73
2023/05/21 07:56:05;;;;;;;22.70;18.60;;;16.60;99.90;;;;;;4977505;28;20073;-74
2023/05/21 07:58:31;;;;;;;21.92;17.73;;;16.70;99.90;;;;;;4981622;28;20050;-74
2023/05/21 08:00:57;;;;;;;24.42;19.35;;;16.70;99.90;;;;;;4978459;28;20054;-74
2023/05/21 08:03:23;;;;;;;26.25;18.10;;;16.70;99.90;;;;;;4987459;28;20031;-74
2023/05/21 08:05:49;;;;;;;26.85;17.98;;;16.80;99.90;;;;;;4983051;28;20085;-74
2023/05/21 08:08:18;;;;;;;25.17;17.67;;;16.80;99.90;;;;;;4970258;28;20043;-74
2023/05/21 08:10:45;;;;;;;21.65;17.40;;;16.90;99.90;;;;;;4962592;28;20812;-76
2023/05/21 08:13:11;;;;;;;24.33;17.50;;;17.00;99.90;;;;;;4972989;28;20101;-76
2023/05/21 08:15:38;;;;;;;22.35;16.10;;;17.00;99.90;;;;;;4976332;28;20402;-75
2023/05/21 08:18:04;;;;;;;18.27;15.05;;;17.10;99.90;;;;;;4965920;28;20042;-76
2023/05/21 08:20:32;;;;;;;24.88;17.45;;;17.20;99.90;;;;;;4963358;28;20042;-76
2023/05/21 08:22:58;;;;;;;22.70;17.77;;;17.30;99.90;;;;;;4961736;28;20133;-76
2023/05/21 08:25:27;;;;;;;24.15;16.75;;;17.40;99.90;;;;;;4985701;28;20042;-76
2023/05/21 08:27:53;;;;;;;22.08;16.75;;;17.40;99.90;;;;;;4963418;28;20107;-77
2023/05/21 08:30:19;;;;;;;23.75;18.60;;;17.50;99.90;;;;;;4979162;28;20058;-75
2023/05/21 08:32:45;;;;;;;24.17;17.02;;;17.50;99.90;;;;;;4950161;28;20058;-75
2023/05/21 08:35:11;;;;;;;24.73;17.45;;;17.60;99.90;;;;;;4993602;28;20627;-75
2023/05/21 08:37:37;;;;;;;20.83;17.08;;;17.70;99.90;;;;;;4997704;28;20136;-74
2023/05/21 08:40:04;;;;;;;24.20;18.30;;;17.70;99.90;;;;;;4988110;28;20133;-74
2023/05/21 08:42:44;;;;;;;19.88;16.95;;;17.80;99.90;;;;;;4965418;28;20066;-75
2023/05/21 08:45:15;;;;;;;19.70;16.50;;;17.80;99.90;;;;;;4989121;28;20077;-75
2023/05/21 08:47:45;;;;;;;25.02;18.38;;;17.90;99.90;;;;;;4971249;28;20046;-75
2023/05/21 08:50:15;;;;;;;24.38;19.50;;;18.00;99.90;;;;;;4962359;28;20502;-75
2023/05/21 08:52:40;;;;;;;22.30;17.85;;;18.10;99.90;;;;;;4978191;28;20061;-76
2023/05/21 08:55:07;;;;;;;22.88;18.33;;;18.20;99.90;;;;;;4961262;28;20038;-76
2023/05/21 08:57:33;;;;;;;24.42;17.50;;;18.20;99.90;;;;;;4973092;28;20451;-76
2023/05/21 09:00:00;;;;;;;22.40;16.42;;;18.30;99.90;;;;;;4975606;28;20035;-77
2023/05/21 09:02:29;;;;;;;21.50;18.58;;;18.40;99.90;;;;;;4988280;28;20103;-76
2023/05/21 09:04:56;;;;;;;;;;;18.40;99.90;;;;;;4975504;28;20042;-77
2023/05/21 09:07:27;;;;;;;22.65;19.30;;;18.50;99.90;;;;;;4959986;28;19916;-77
2023/05/21 09:10:07;;;;;;;25.25;19.40;;;18.50;99.90;;;;;;4980443;28;20045;-76
2023/05/21 09:12:32;;;;;;;23.75;20.17;;;18.50;99.90;;;;;;4975051;28;20146;-76
2023/05/21 09:14:59;;;;;;;22.38;19.10;;;18.60;99.90;;;;;;4973260;28;20549;-76
2023/05/21 09:17:27;;;;;;;21.27;17.20;;;18.70;99.90;;;;;;4964686;28;20050;-76
2023/05/21 09:20:13;;;;;;;20.98;18.60;;;18.70;99.90;;;;;;4968429;28;20046;-76
2023/05/21 09:22:40;;;;;;;23.30;18.88;;;18.80;99.90;;;;;;4979863;28;20042;-76
2023/05/21 09:25:08;;;;;;;23.52;17.80;;;18.80;99.90;;;;;;4977270;28;20046;-76
2023/05/21 09:27:34;;;;;;;25.73;19.02;;;18.90;99.90;;;;;;4981001;28;20093;-75
2023/05/21 09:30:01;;;;;;;20.35;16.38;;;19.00;99.90;;;;;;4991290;28;20057;-76
2023/05/21 09:32:27;;;;;;;19.40;16.73;;;19.00;99.90;;;;;;4984173;28;20057;-75
2023/05/21 09:34:53;;;;;;;23.25;18.75;;;19.20;99.90;;;;;;4987191;28;20046;-76
2023/05/21 09:37:19;;;;;;;21.38;18.92;;;19.30;99.90;;;;;;4972863;28;20363;-76
2023/05/21 09:39:46;;;;;;;23.55;18.08;;;19.40;99.90;;;;;;4986561;28;20046;-76
2023/05/21 09:42:12;;;;;;;21.95;19.15;;;19.50;99.90;;;;;;4982862;28;20074;-76
2023/05/21 09:44:38;;;;;;;22.83;18.42;;;19.70;99.90;;;;;;4967932;28;20758;-76
2023/05/21 09:47:04;;;;;;;22.08;17.05;;;19.90;99.90;;;;;;4987144;28;20060;-76
2023/05/21 09:49:30;;;;;;;22.90;19.40;;;20.00;99.90;;;;;;4967425;28;20126;-75
2023/05/21 09:51:56;;;;;;;21.98;17.42;;;20.10;99.90;;;;;;4985291;28;20054;-76
2023/05/21 09:54:23;;;;;;;20.45;17.55;;;20.20;99.90;;;;;;4960387;28;20060;-77
2023/05/21 09:56:50;;;;;;;19.13;16.40;;;20.20;99.90;;;;;;4951007;28;20050;-76
2023/05/21 09:59:16;;;;;;;21.05;17.25;;;20.30;99.90;;;;;;4961511;28;20125;-76
2023/05/21 10:01:42;;;;;;;21.20;17.63;;;20.30;99.90;;;;;;4992508;28;20134;-76
2023/05/21 10:04:08;;;;;;;19.65;17.08;;;20.40;99.90;;;;;;4978184;28;20125;-76
2023/05/21 10:06:37;;;;;;;25.02;18.83;;;20.50;99.90;;;;;;4997079;28;20137;-77
2023/05/21 10:09:07;;;;;;;19.05;17.05;;;20.50;99.90;;;;;;4985552;28;20078;-76
2023/05/21 10:11:33;;;;;;;22.25;18.35;;;20.50;99.90;;;;;;4970253;28;20046;-76
2023/05/21 10:14:15;;;;;;;21.90;18.55;;;20.60;99.90;;;;;;4978234;28;20790;-76
2023/05/21 10:16:40;;;;;;;23.60;17.13;;;20.70;99.90;;;;;;4975875;28;20049;-76
2023/05/21 10:19:09;;;;;;;20.33;18.05;;;20.80;99.90;;;;;;4975952;28;20479;-76
2023/05/21 10:21:35;;;;;;;21.08;18.58;;;20.90;99.90;;;;;;4985964;28;20039;-76
2023/05/21 10:24:01;;;;;;;20.38;17.95;;;20.90;99.90;;;;;;4975553;28;20085;-76
2023/05/21 10:26:27;;;;;;;20.85;18.65;;;21.00;99.90;;;;;;4982032;28;20053;-75
2023/05/21 10:28:53;;;;;;;21.35;16.33;;;21.10;99.90;;;;;;4967462;28;20758;-75
2023/05/21 10:31:19;;;;;;;21.13;17.20;;;21.20;99.90;;;;;;4965243;28;20046;-75
2023/05/21 10:33:45;;;;;;;20.05;16.45;;;21.40;99.90;;;;;;4949020;28;20034;-75
2023/05/21 10:36:11;;;;;;;19.25;15.32;;;21.40;99.90;;;;;;4982836;28;20481;-75
2023/05/21 10:38:37;;;;;;;22.05;16.77;;;21.50;99.90;;;;;;4992756;28;20046;-75
2023/05/21 10:41:05;;;;;;;25.90;15.15;;;21.60;99.90;;;;;;4968214;28;20482;-75
2023/05/21 10:44:08;;;;;;;18.50;15.35;;;21.70;99.90;;;;;;4966996;28;20103;-74
2023/05/21 10:46:55;;;;;;;19.98;15.52;;;21.80;99.90;;;;;;4977049;28;20362;-74
2023/05/21 10:49:39;;;;;;;18.75;16.75;;;21.90;99.90;;;;;;4981360;28;20203;-74
2023/05/21 10:52:30;;;;;;;19.85;15.90;;;22.00;99.90;;;;;;4996336;28;20124;-75
2023/05/21 10:55:25;;;;;;;18.88;16.88;;;22.10;99.90;;;;;;4973538;28;20057;-75
2023/05/21 10:58:18;;;;;;;21.02;15.43;;;22.20;99.90;;;;;;4991341;28;20120;-76
2023/05/21 11:00:44;;;;;;;19.05;15.32;;;22.30;99.90;;;;;;4995903;28;20050;-75
2023/05/21 11:03:11;;;;;;;17.30;15.40;;;22.40;99.90;;;;;;4967052;28;20047;-75
2023/05/21 11:05:56;;;;;;;20.00;16.17;;;22.40;99.90;;;;;;4978269;28;20080;-75
2023/05/21 11:08:23;;;;;;;20.05;15.27;;;22.40;99.90;;;;;;4980813;28;20057;-75
2023/05/21 11:10:56;;;;;;;17.48;15.57;;;22.40;99.90;;;;;;4980954;28;20467;-76
2023/05/21 11:13:23;;;;;;;17.42;14.10;;;22.50;99.90;;;;;;4963037;28;20050;-75
2023/05/21 11:15:57;;;;;;;18.75;15.98;;;22.50;99.90;;;;;;4996763;28;20053;-74
2023/05/21 11:18:30;;;;;;;18.30;14.77;;;22.60;99.90;;;;;;4996025;28;20054;-74
2023/05/21 11:21:09;;;;;;;18.25;15.07;;;22.80;99.90;;;;;;4995362;28;20038;-74
2023/05/21 11:23:55;;;;;;;15.95;14.23;;;22.90;99.90;;;;;;4955667;28;20062;-75
2023/05/21 11:26:26;;;;;;;16.20;14.50;;;23.00;99.90;;;;;;4972253;28;20047;-74
2023/05/21 11:29:15;;;;;;;15.90;13.73;;;23.10;99.90;;;;;;4953522;28;20053;-74
2023/05/21 11:31:45;;;;;;;15.98;13.77;;;23.30;98.80;;;;;;4971660;28;20089;-75
2023/05/21 11:34:14;;;;;;;18.55;14.90;;;23.40;99.70;;;;;;4963178;28;20414;-74
2023/05/21 11:36:43;;;;;;;18.48;14.68;;;23.40;99.90;;;;;;4945965;28;20366;-75
2023/05/21 11:39:10;;;;;;;16.38;14.68;;;23.50;99.90;;;;;;4951463;28;20390;-75
2023/05/21 11:41:59;;;;;;;16.60;14.35;;;23.50;99.10;;;;;;4989893;28;20046;-75
2023/05/21 11:44:44;;;;;;;17.88;14.07;;;23.60;99.70;;;;;;4975791;28;20535;-75
2023/05/21 11:47:14;;;;;;;16.45;13.73;;;23.70;99.70;;;;;;4953199;28;20051;-75
2023/05/21 11:49:40;;;;;;;17.67;14.13;;;23.70;98.40;;;;;;4979191;28;20116;-76
2023/05/21 11:52:07;;;;;;;15.25;13.65;;;23.80;98.80;;;;;;4984292;28;20529;-75
2023/05/21 11:54:49;;;;;;;16.98;13.27;;;23.90;99.50;;;;;;4986453;28;20121;-75
2023/05/21 11:57:16;;;;;;;14.95;13.10;;;24.00;98.50;;;;;;4971920;28;20473;-75
2023/05/21 11:59:42;;;;;;;14.18;12.35;;;24.00;97.60;;;;;;4980420;28;20042;-75
2023/05/21 12:02:12;;;;;;;16.05;11.95;;;23.90;96.80;;;;;;4983324;28;20104;-75
2023/05/21 12:04:41;;;;;;;15.23;11.50;;;23.80;97.00;;;;;;4966458;28;20050;-75
2023/05/21 12:07:09;;;;;;;13.50;12.10;;;23.70;97.10;;;;;;4988939;28;20046;-75
2023/05/21 12:09:41;;;;;;;14.77;13.20;;;23.70;97.20;;;;;;4988630;28;20050;-75
2023/05/21 12:12:07;;;;;;;18.30;12.80;;;23.60;97.30;;;;;;4947230;28;20120;-74
2023/05/21 12:14:34;;;;;;;15.15;12.27;;;23.80;97.20;;;;;;4999269;28;20046;-75
2023/05/21 12:17:01;;;;;;;16.35;12.75;;;23.80;97.20;;;;;;4966838;28;20083;-74
2023/05/21 12:19:32;;;;;;;14.52;12.15;;;23.90;97.00;;;;;;4990126;28;20057;-77
2023/05/21 12:22:00;;;;;;;17.10;12.05;;;24.00;97.00;;;;;;4955082;28;20501;-76
2023/05/21 12:24:26;;;;;;;13.75;12.10;;;24.10;95.80;;;;;;4976895;28;20053;-75
2023/05/21 12:26:53;;;;;;;16.23;12.50;;;24.10;95.60;;;;;;4971909;28;20049;-75
2023/05/21 12:29:22;;;;;;;16.25;11.85;;;24.20;95.50;;;;;;4960663;28;20051;-75
2023/05/21 12:31:49;;;;;;;15.30;11.98;;;24.30;96.80;;;;;;4960931;28;20089;-75
2023/05/21 12:34:17;;;;;;;13.80;12.32;;;24.50;96.30;;;;;;4952836;28;20042;-75